Time;durP1;ratioP1;P1;durP2;ratioP2;P2;SDS_P1;SDS_P2;PMS_P1;PMS_P2;Temp;Humidity;BMP_temperature;BMP_pressure;BME280_temperature;BME280_humidity;BME280_pressure;Samples;Min_cycle;Max_cycle;Signal;HPM_P1;HPM_P2
2021/12/29 00:00:15;;;;;;;4.00;2.57;;;8.70;99.90;;;;;;4986908;28;20195;-85
2021/12/29 00:02:41;;;;;;;3.17;2.27;;;8.70;99.90;;;;;;4985640;28;20219;-87
2021/12/29 00:05:08;;;;;;;6.97;2.47;;;8.70;99.90;;;;;;4986087;28;20704;-86
2021/12/29 00:07:34;;;;;;;2.17;1.97;;;8.70;99.90;;;;;;4970155;28;20227;-88
2021/12/29 00:10:01;;;;;;;4.20;2.47;;;8.70;99.90;;;;;;4985570;28;20266;-87
2021/12/29 00:12:28;;;;;;;1.87;1.23;;;8.70;99.90;;;;;;4969493;28;20214;-86
2021/12/29 00:14:56;;;;;;;5.20;3.13;;;8.70;99.90;;;;;;4985946;28;20578;-87
2021/12/29 00:17:22;;;;;;;3.03;2.80;;;8.70;99.90;;;;;;4985554;28;20703;-88
2021/12/29 00:19:48;;;;;;;4.03;3.30;;;8.70;99.90;;;;;;4969436;28;20783;-88
2021/12/29 00:22:14;;;;;;;4.30;2.87;;;8.70;99.90;;;;;;4985319;28;20232;-86
2021/12/29 00:24:40;;;;;;;2.87;2.60;;;8.80;99.90;;;;;;5001631;28;20776;-88
2021/12/29 00:27:07;;;;;;;5.17;2.33;;;8.80;99.90;;;;;;4969671;28;20236;-86
2021/12/29 00:29:33;;;;;;;3.20;2.37;;;8.80;99.90;;;;;;4969286;28;20289;-89
2021/12/29 00:31:59;;;;;;;4.40;2.50;;;8.90;99.90;;;;;;4985171;28;20697;-87
2021/12/29 00:34:25;;;;;;;4.83;2.27;;;8.90;99.90;;;;;;4967886;28;20247;-86
2021/12/29 00:36:50;;;;;;;2.17;1.93;;;9.00;99.90;;;;;;4974433;28;20224;-88
2021/12/29 00:39:16;;;;;;;3.07;2.70;;;8.90;99.90;;;;;;4959918;28;20189;-85
2021/12/29 00:41:42;;;;;;;2.37;1.77;;;8.90;99.90;;;;;;4951365;28;20240;-88
2021/12/29 00:44:08;;;;;;;4.37;2.47;;;8.90;99.90;;;;;;4958598;28;20599;-85
2021/12/29 00:46:38;;;;;;;6.00;2.87;;;8.90;99.90;;;;;;4943860;28;20220;-86
2021/12/29 00:49:05;;;;;;;29.43;3.40;;;8.80;99.90;;;;;;4986663;28;20289;-86
2021/12/29 00:51:30;;;;;;;6.07;2.97;;;8.80;99.90;;;;;;4948035;28;20238;-85
2021/12/29 00:53:56;;;;;;;36.93;4.23;;;8.80;99.90;;;;;;4948881;28;20192;-88
2021/12/29 00:56:22;;;;;;;16.57;3.77;;;8.70;99.90;;;;;;4946483;28;20235;-87
2021/12/29 00:58:48;;;;;;;4.40;3.43;;;8.70;99.90;;;;;;4963403;28;20225;-86
2021/12/29 01:01:48;;;;;;;6.53;3.23;;;8.60;99.90;;;;;;4939841;28;20289;-87
2021/12/29 01:04:18;;;;;;;3.30;1.77;;;8.60;99.90;;;;;;4986517;28;20216;-86
2021/12/29 01:06:59;;;;;;;0.77;0.77;;;8.60;99.90;;;;;;4976962;28;20270;-86
2021/12/29 01:09:25;;;;;;;2.90;2.70;;;8.60;99.90;;;;;;4942080;28;20219;-87
2021/12/29 01:11:57;;;;;;;3.03;2.60;;;8.60;99.90;;;;;;4947566;28;20231;-87
2021/12/29 01:14:44;;;;;;;2.07;1.87;;;8.70;99.90;;;;;;4964553;28;20759;-88
2021/12/29 01:17:42;;;;;;;3.33;2.53;;;8.80;99.90;;;;;;4967956;28;20232;-85
2021/12/29 01:20:29;;;;;;;1.77;1.67;;;9.00;99.90;;;;;;4977999;28;20295;-90
2021/12/29 01:23:15;;;;;;;3.13;2.53;;;9.10;99.90;;;;;;4965006;28;20301;-89
2021/12/29 01:25:44;;;;;;;2.43;2.23;;;9.10;99.90;;;;;;4948265;28;20230;-87
2021/12/29 01:28:10;;;;;;;8.37;3.43;;;9.10;99.90;;;;;;4978781;28;20689;-86
2021/12/29 01:30:36;;;;;;;6.13;2.97;;;9.10;99.90;;;;;;4980148;28;20189;-89
2021/12/29 01:33:05;;;;;;;8.93;2.90;;;9.10;99.90;;;;;;4946710;28;20662;-85
2021/12/29 01:35:33;;;;;;;2.43;1.87;;;9.10;99.90;;;;;;4977513;28;20222;-85
2021/12/29 01:38:00;;;;;;;2.77;2.53;;;9.10;99.90;;;;;;4978079;28;20221;-86
2021/12/29 01:40:27;;;;;;;4.50;3.13;;;9.10;99.90;;;;;;4966363;28;20308;-86
2021/12/29 01:42:53;;;;;;;2.30;1.97;;;9.10;99.90;;;;;;5004281;28;20215;-86
2021/12/29 01:45:19;;;;;;;4.33;3.07;;;9.10;99.90;;;;;;4971797;28;20250;-85
2021/12/29 01:47:45;;;;;;;1.57;1.47;;;9.10;99.90;;;;;;4987542;28;20331;-87
2021/12/29 01:50:12;;;;;;;3.50;1.80;;;9.10;99.90;;;;;;4955488;28;20323;-86
2021/12/29 01:52:40;;;;;;;3.10;1.67;;;9.20;99.90;;;;;;4987924;28;20235;-86
2021/12/29 01:55:14;;;;;;;2.60;1.80;;;9.20;99.90;;;;;;4988049;28;20219;-87
2021/12/29 01:57:42;;;;;;;2.33;1.07;;;9.20;99.90;;;;;;4988000;28;20198;-85
2021/12/29 02:00:12;;;;;;;4.80;2.37;;;9.10;99.90;;;;;;4988212;28;20286;-86
2021/12/29 02:02:39;;;;;;;11.87;2.07;;;9.10;99.90;;;;;;5003452;28;20207;-86
2021/12/29 02:05:05;;;;;;;1.50;1.40;;;9.00;99.90;;;;;;4955800;28;20306;-86
2021/12/29 02:07:31;;;;;;;2.97;1.50;;;9.10;99.90;;;;;;4956346;28;20220;-86
2021/12/29 02:09:57;;;;;;;1.83;1.73;;;9.10;99.90;;;;;;4955663;28;20306;-85
2021/12/29 02:12:23;;;;;;;3.47;1.90;;;9.10;99.90;;;;;;4986995;28;20299;-85
2021/12/29 02:14:49;;;;;;;1.87;1.17;;;9.10;99.90;;;;;;4988365;28;20553;-85
2021/12/29 02:17:15;;;;;;;2.40;1.20;;;9.10;99.90;;;;;;4968767;28;20205;-87
2021/12/29 02:19:47;;;;;;;2.00;1.83;;;9.10;99.90;;;;;;4944592;28;20702;-87
2021/12/29 02:22:33;;;;;;;1.77;1.67;;;9.10;99.90;;;;;;4977871;28;20933;-86
2021/12/29 02:27:36;;;;;;;2.37;2.17;;;9.00;99.90;;;;;;4977071;28;20237;-85
2021/12/29 02:30:04;;;;;;;2.03;1.93;;;9.00;99.90;;;;;;4962515;28;20644;-86
2021/12/29 02:32:29;;;;;;;2.67;2.10;;;8.90;99.90;;;;;;4961104;28;20323;-89
2021/12/29 02:34:55;;;;;;;2.33;2.13;;;8.80;99.90;;;;;;4977827;28;20228;-85
2021/12/29 02:37:22;;;;;;;2.93;1.90;;;8.90;99.90;;;;;;4961927;28;20307;-87
2021/12/29 02:39:50;;;;;;;1.97;1.77;;;8.90;99.90;;;;;;4945055;28;20547;-88
2021/12/29 02:42:20;;;;;;;3.60;2.70;;;8.90;99.90;;;;;;4960502;28;20207;-85
2021/12/29 02:44:47;;;;;;;9.17;1.70;;;9.00;99.90;;;;;;4987016;28;20223;-85
2021/12/29 02:47:13;;;;;;;1.60;1.50;;;9.00;99.90;;;;;;4987720;28;20216;-86
2021/12/29 02:49:38;;;;;;;2.83;1.53;;;9.00;99.90;;;;;;4970902;28;20338;-86
2021/12/29 02:52:05;;;;;;;2.17;1.77;;;9.10;99.90;;;;;;4986818;28;20220;-86
2021/12/29 02:54:30;;;;;;;2.37;2.20;;;9.10;99.90;;;;;;4971011;28;20188;-85
2021/12/29 02:56:56;;;;;;;4.47;2.10;;;9.10;99.90;;;;;;4971264;28;20199;-90
2021/12/29 02:59:23;;;;;;;3.17;1.23;;;9.10;99.90;;;;;;4954597;28;20959;-85
2021/12/29 03:01:50;;;;;;;2.30;1.80;;;9.20;99.90;;;;;;4970755;28;20866;-86
2021/12/29 03:04:16;;;;;;;4.77;2.47;;;9.20;99.90;;;;;;4986224;28;20219;-85
2021/12/29 03:06:42;;;;;;;2.40;1.67;;;9.20;99.90;;;;;;4969914;28;20208;-86
2021/12/29 03:09:10;;;;;;;5.70;3.60;;;9.20;99.90;;;;;;4969625;28;20218;-86
2021/12/29 03:11:37;;;;;;;1.70;1.60;;;9.30;99.90;;;;;;4985873;28;20212;-86
2021/12/29 03:14:05;;;;;;;4.07;2.43;;;9.30;99.90;;;;;;4969519;28;20214;-88
2021/12/29 03:16:33;;;;;;;11.87;3.03;;;9.30;99.90;;;;;;5002119;28;20228;-85
2021/12/29 03:18:59;;;;;;;3.10;2.77;;;9.30;99.90;;;;;;4986041;28;20220;-85
2021/12/29 03:21:25;;;;;;;3.07;2.03;;;9.30;99.90;;;;;;4969892;28;20200;-86
2021/12/29 03:23:51;;;;;;;2.67;2.30;;;9.40;99.90;;;;;;4954456;28;20226;-88
2021/12/29 03:26:17;;;;;;;1.93;1.50;;;9.30;99.90;;;;;;4953901;28;20255;-86
2021/12/29 03:28:43;;;;;;;4.30;2.27;;;9.20;99.90;;;;;;4970471;28;20216;-87
2021/12/29 03:31:14;;;;;;;0.97;0.83;;;9.10;99.90;;;;;;4969987;28;20273;-85
2021/12/29 03:33:40;;;;;;;2.60;2.40;;;9.10;99.90;;;;;;4969803;28;20204;-87
2021/12/29 03:36:06;;;;;;;2.67;2.37;;;9.10;99.90;;;;;;4954139;28;20180;-86
2021/12/29 03:38:35;;;;;;;4.93;2.37;;;9.10;99.90;;;;;;4970474;28;20219;-87
2021/12/29 03:41:02;;;;;;;3.67;3.10;;;9.10;99.90;;;;;;5002535;28;20622;-86
2021/12/29 03:43:29;;;;;;;1.30;1.23;;;9.20;99.90;;;;;;5001913;28;20204;-85
2021/12/29 03:45:55;;;;;;;8.87;3.23;;;9.20;99.90;;;;;;4969868;28;20350;-86
2021/12/29 03:48:23;;;;;;;3.47;2.10;;;9.20;99.90;;;;;;4985572;28;20561;-88
2021/12/29 03:50:49;;;;;;;5.03;2.87;;;9.20;99.90;;;;;;5002856;28;20184;-86
2021/12/29 03:53:16;;;;;;;1.83;1.73;;;9.20;99.90;;;;;;4984999;28;20735;-86
2021/12/29 03:55:46;;;;;;;4.07;1.77;;;9.30;99.90;;;;;;5002045;28;20257;-87
2021/12/29 03:58:12;;;;;;;2.47;2.00;;;9.40;99.90;;;;;;4986032;28;21039;-85
2021/12/29 04:00:38;;;;;;;1.67;1.57;;;9.40;99.90;;;;;;4986792;28;21139;-85
2021/12/29 04:03:05;;;;;;;1.53;1.33;;;9.50;99.90;;;;;;4970383;28;20188;-85
2021/12/29 04:05:33;;;;;;;4.90;3.20;;;9.50;99.90;;;;;;4969690;28;20220;-86
2021/12/29 04:07:59;;;;;;;2.87;2.57;;;9.50;99.90;;;;;;4969755;28;20223;-88
2021/12/29 04:10:26;;;;;;;3.83;1.07;;;9.60;99.90;;;;;;4985500;28;20216;-86
2021/12/29 04:12:52;;;;;;;1.50;1.40;;;9.60;99.90;;;;;;4985517;28;20219;-85
2021/12/29 04:15:18;;;;;;;3.37;1.60;;;9.60;99.90;;;;;;4985884;28;20191;-86
2021/12/29 04:17:46;;;;;;;4.40;1.80;;;9.50;99.90;;;;;;4985250;28;20743;-85
2021/12/29 04:23:08;;;;;;;4.47;3.07;;;9.50;99.90;;;;;;4986439;28;20207;-85
2021/12/29 04:25:37;;;;;;;2.33;1.90;;;9.50;99.90;;;;;;4969489;28;20219;-86
2021/12/29 04:28:08;;;;;;;3.67;2.30;;;9.50;99.90;;;;;;4969422;28;20223;-86
2021/12/29 04:30:35;;;;;;;3.77;2.43;;;9.50;99.90;;;;;;4985239;28;20227;-85
2021/12/29 04:33:00;;;;;;;4.10;2.67;;;9.50;99.90;;;;;;4969696;28;20290;-85
2021/12/29 04:35:27;;;;;;;2.90;2.13;;;9.50;99.90;;;;;;4953955;28;20258;-86
2021/12/29 04:37:53;;;;;;;2.27;2.07;;;9.50;99.90;;;;;;4969697;28;20215;-86
2021/12/29 04:40:20;;;;;;;7.17;2.27;;;9.60;99.90;;;;;;4984745;28;20310;-86
2021/12/29 04:42:47;;;;;;;2.03;1.43;;;9.60;99.90;;;;;;4985286;28;20263;-87
2021/12/29 04:45:13;;;;;;;1.80;1.70;;;9.60;99.90;;;;;;4985732;28;20188;-86
2021/12/29 04:47:42;;;;;;;2.50;1.47;;;9.50;99.90;;;;;;4969006;28;20223;-85
2021/12/29 04:50:23;;;;;;;3.97;3.50;;;9.60;99.90;;;;;;4985157;28;20211;-87
2021/12/29 04:52:50;;;;;;;4.27;2.90;;;9.60;99.90;;;;;;4985616;28;20558;-85
2021/12/29 04:55:16;;;;;;;3.27;2.93;;;9.50;99.90;;;;;;4984856;28;20216;-88
2021/12/29 04:57:42;;;;;;;2.17;2.07;;;9.50;99.90;;;;;;4953197;28;20234;-88
2021/12/29 05:00:08;;;;;;;7.07;4.23;;;9.50;99.90;;;;;;4970054;28;20251;-85
2021/12/29 05:02:34;;;;;;;3.87;2.57;;;9.50;99.90;;;;;;4984694;28;20232;-85
2021/12/29 05:05:08;;;;;;;5.50;3.37;;;9.50;99.90;;;;;;4985000;28;20227;-86
2021/12/29 05:10:28;;;;;;;6.13;2.67;;;9.50;99.90;;;;;;4984954;28;20243;-89
2021/12/29 05:12:54;;;;;;;4.73;2.93;;;9.50;99.90;;;;;;4952797;28;20231;-85
2021/12/29 05:15:20;;;;;;;3.33;2.17;;;9.50;99.90;;;;;;4985426;28;20250;-87
2021/12/29 05:17:45;;;;;;;2.87;2.40;;;9.50;99.90;;;;;;4952821;28;20697;-88
2021/12/29 05:20:12;;;;;;;3.93;3.27;;;9.50;99.90;;;;;;4968188;28;20758;-87
2021/12/29 05:22:37;;;;;;;3.70;2.70;;;9.60;99.90;;;;;;4967765;28;20216;-88
2021/12/29 05:25:04;;;;;;;4.17;2.27;;;9.50;99.90;;;;;;4968490;28;20219;-85
2021/12/29 05:27:29;;;;;;;3.67;3.30;;;9.50;99.90;;;;;;4968275;28;20257;-86
2021/12/29 05:29:55;;;;;;;3.07;2.77;;;9.40;99.90;;;;;;4969516;28;20184;-86
2021/12/29 05:32:21;;;;;;;2.70;2.50;;;9.40;99.90;;;;;;5002686;28;20273;-86
2021/12/29 05:34:47;;;;;;;7.73;2.33;;;9.40;99.90;;;;;;4956302;28;20274;-88
2021/12/29 05:37:13;;;;;;;2.63;2.40;;;9.40;99.90;;;;;;4988458;28;20583;-85
2021/12/29 05:39:38;;;;;;;5.37;2.53;;;9.40;99.90;;;;;;4955883;28;20639;-87
2021/12/29 05:42:04;;;;;;;5.53;3.23;;;9.40;99.90;;;;;;4956378;28;20558;-87
2021/12/29 05:44:30;;;;;;;5.90;1.47;;;9.50;99.90;;;;;;4971457;28;20215;-86
2021/12/29 05:46:56;;;;;;;6.13;2.83;;;9.50;99.90;;;;;;4955666;28;20270;-86
2021/12/29 05:49:22;;;;;;;2.13;1.67;;;9.50;99.90;;;;;;4987629;28;20226;-86
2021/12/29 05:51:47;;;;;;;10.17;4.90;;;9.50;99.90;;;;;;4987896;28;20708;-86
2021/12/29 05:54:13;;;;;;;4.10;3.13;;;9.50;99.90;;;;;;4955981;28;20387;-85
2021/12/29 05:56:40;;;;;;;4.57;2.77;;;9.60;99.90;;;;;;4987516;28;20583;-86
2021/12/29 05:59:06;;;;;;;5.00;2.90;;;9.50;99.90;;;;;;4955940;28;20697;-89
2021/12/29 06:01:33;;;;;;;2.50;1.67;;;9.60;99.90;;;;;;4955653;28;20220;-90
2021/12/29 06:03:58;;;;;;;8.10;2.87;;;9.50;99.90;;;;;;4972235;28;20208;-86
2021/12/29 06:06:24;;;;;;;4.63;2.67;;;9.50;99.90;;;;;;4987259;28;20208;-88
2021/12/29 06:08:50;;;;;;;2.73;2.10;;;9.50;99.90;;;;;;4956012;28;20637;-86
2021/12/29 06:11:16;;;;;;;11.00;2.20;;;9.50;99.90;;;;;;4971531;28;20751;-86
2021/12/29 06:13:42;;;;;;;4.17;3.57;;;9.50;99.90;;;;;;4988091;28;20771;-86
2021/12/29 06:16:07;;;;;;;2.23;1.80;;;9.50;99.90;;;;;;4955343;28;20708;-86
2021/12/29 06:18:33;;;;;;;3.37;2.00;;;9.50;99.90;;;;;;4954988;28;20825;-85
2021/12/29 06:21:00;;;;;;;1.67;1.57;;;9.50;99.90;;;;;;4971257;28;20262;-87
2021/12/29 06:23:26;;;;;;;8.30;2.33;;;9.50;99.90;;;;;;4986984;28;20247;-90
2021/12/29 06:25:52;;;;;;;7.40;2.47;;;9.60;99.90;;;;;;4955233;28;20299;-88
2021/12/29 06:28:17;;;;;;;6.93;2.13;;;9.60;99.90;;;;;;4987418;28;20230;-87
2021/12/29 06:30:44;;;;;;;2.90;1.63;;;9.60;99.90;;;;;;4955301;28;20292;-87
2021/12/29 06:33:10;;;;;;;3.57;3.27;;;9.60;99.90;;;;;;4987521;28;20344;-85
2021/12/29 06:35:36;;;;;;;2.27;2.07;;;9.60;99.90;;;;;;4970828;28;20217;-86
2021/12/29 06:38:02;;;;;;;13.43;4.23;;;9.60;99.90;;;;;;4971759;28;20208;-86
2021/12/29 06:40:28;;;;;;;12.83;3.50;;;9.60;99.90;;;;;;4970713;28;20204;-86
2021/12/29 06:42:54;;;;;;;3.47;2.43;;;9.60;99.90;;;;;;4954493;28;20311;-88
2021/12/29 06:45:19;;;;;;;8.43;2.83;;;9.70;99.90;;;;;;4955237;28;20199;-86
2021/12/29 06:47:45;;;;;;;3.33;2.60;;;9.70;99.90;;;;;;4955507;28;20212;-87
2021/12/29 06:50:11;;;;;;;10.80;3.07;;;9.70;99.90;;;;;;4953882;28;20255;-86
2021/12/29 06:52:37;;;;;;;7.67;2.23;;;9.60;99.90;;;;;;4986525;28;20223;-84
2021/12/29 06:55:03;;;;;;;4.93;2.67;;;9.60;99.90;;;;;;4987081;28;20185;-86
2021/12/29 06:57:29;;;;;;;1.73;1.63;;;9.60;99.90;;;;;;4980836;28;20307;-86
2021/12/29 06:59:55;;;;;;;5.40;2.17;;;9.60;99.90;;;;;;4969402;28;20307;-88
2021/12/29 07:02:21;;;;;;;2.03;1.83;;;9.60;99.90;;;;;;4986117;28;20247;-90
2021/12/29 07:04:47;;;;;;;4.60;2.50;;;9.60;99.90;;;;;;4953955;28;20188;-86
2021/12/29 07:07:12;;;;;;;9.97;3.10;;;9.60;99.90;;;;;;4970971;28;20583;-88
2021/12/29 07:09:38;;;;;;;2.77;2.00;;;9.60;99.90;;;;;;4970258;28;21339;-86
2021/12/29 07:12:04;;;;;;;4.47;2.47;;;9.60;99.90;;;;;;4986299;28;20299;-87
2021/12/29 07:14:30;;;;;;;10.77;4.17;;;9.70;99.90;;;;;;4970421;28;20371;-87
2021/12/29 07:16:56;;;;;;;3.47;2.47;;;9.70;99.90;;;;;;4953982;28;20299;-87
2021/12/29 07:19:22;;;;;;;5.43;2.43;;;9.70;99.90;;;;;;4970746;28;20220;-87
2021/12/29 07:21:49;;;;;;;6.97;3.23;;;9.70;99.90;;;;;;4986822;28;20235;-88
2021/12/29 07:24:16;;;;;;;26.90;2.63;;;9.70;99.90;;;;;;4967564;28;20224;-88
2021/12/29 07:26:42;;;;;;;8.43;2.23;;;9.70;99.90;;;;;;4968461;28;20700;-86
2021/12/29 07:29:08;;;;;;;3.67;2.03;;;9.70;99.90;;;;;;4980807;28;20843;-88
2021/12/29 07:31:34;;;;;;;4.30;2.00;;;9.70;99.90;;;;;;4954581;28;20279;-86
2021/12/29 07:34:00;;;;;;;2.23;2.13;;;9.80;99.90;;;;;;5001863;28;20703;-85
2021/12/29 07:36:26;;;;;;;26.87;2.93;;;9.80;99.90;;;;;;4985878;28;20575;-87
2021/12/29 07:38:52;;;;;;;4.10;2.50;;;9.80;99.90;;;;;;4953992;28;20219;-86
2021/12/29 07:41:18;;;;;;;3.67;1.30;;;9.80;99.90;;;;;;4953974;28;20239;-87
2021/12/29 07:43:45;;;;;;;3.13;2.67;;;9.80;99.90;;;;;;4985344;28;20180;-87
2021/12/29 07:46:12;;;;;;;5.67;2.53;;;9.80;99.90;;;;;;4986306;28;20621;-86
2021/12/29 07:48:38;;;;;;;1.83;1.37;;;9.80;99.90;;;;;;4953755;28;20262;-89
2021/12/29 07:51:05;;;;;;;7.50;2.40;;;9.80;99.90;;;;;;4970752;28;20220;-85
2021/12/29 07:53:37;;;;;;;3.63;2.87;;;9.80;99.90;;;;;;4969876;28;20716;-85
2021/12/29 07:56:05;;;;;;;1.87;1.63;;;9.70;99.90;;;;;;4969920;28;20224;-86
2021/12/29 07:58:31;;;;;;;2.57;2.07;;;9.70;99.90;;;;;;4986175;28;20199;-86
2021/12/29 08:00:57;;;;;;;2.57;1.97;;;9.70;99.90;;;;;;4985721;28;20216;-86
2021/12/29 08:03:23;;;;;;;3.73;1.93;;;9.70;99.90;;;;;;4969483;28;20313;-87
2021/12/29 08:05:48;;;;;;;2.60;2.10;;;9.70;99.90;;;;;;4969533;28;20759;-86
2021/12/29 08:08:14;;;;;;;11.17;2.43;;;9.70;99.90;;;;;;4985418;28;20223;-85
2021/12/29 08:10:40;;;;;;;2.87;1.70;;;9.60;99.90;;;;;;4952912;28;20188;-86
2021/12/29 08:13:07;;;;;;;5.00;2.77;;;9.70;99.90;;;;;;4969915;28;20319;-86
2021/12/29 08:15:34;;;;;;;3.30;2.30;;;9.70;99.90;;;;;;4984915;28;20208;-85
2021/12/29 08:18:02;;;;;;;1.70;1.40;;;9.60;99.90;;;;;;4969387;28;20200;-86
2021/12/29 08:20:29;;;;;;;7.40;2.63;;;9.70;99.90;;;;;;4984142;28;20705;-86
2021/12/29 08:22:55;;;;;;;3.90;0.97;;;9.70;99.90;;;;;;4985778;28;20248;-88
2021/12/29 08:25:21;;;;;;;4.60;2.40;;;9.70;99.90;;;;;;4969957;28;20622;-85
2021/12/29 08:27:47;;;;;;;2.10;1.90;;;9.70;99.90;;;;;;4985130;28;20219;-87
2021/12/29 08:30:14;;;;;;;2.23;1.43;;;9.70;99.90;;;;;;4984705;28;20214;-90
2021/12/29 08:32:39;;;;;;;1.70;1.60;;;9.70;99.90;;;;;;4985229;28;20219;-86
2021/12/29 08:35:06;;;;;;;1.30;0.93;;;9.70;99.90;;;;;;4953162;28;20371;-86
2021/12/29 08:37:32;;;;;;;1.97;1.83;;;9.70;99.90;;;;;;4985568;28;20184;-87
2021/12/29 08:39:58;;;;;;;3.50;1.47;;;9.80;99.90;;;;;;4984898;28;20208;-86
2021/12/29 08:42:24;;;;;;;3.77;2.20;;;9.80;99.90;;;;;;4968909;28;20236;-86
2021/12/29 08:44:50;;;;;;;2.23;1.40;;;9.70;99.90;;;;;;4952484;28;20323;-85
2021/12/29 08:47:16;;;;;;;4.00;1.10;;;9.70;99.90;;;;;;4968864;28;20691;-87
2021/12/29 08:49:42;;;;;;;3.97;1.90;;;9.70;99.90;;;;;;4953454;28;20192;-87
2021/12/29 08:52:08;;;;;;;0.93;0.93;;;9.70;99.90;;;;;;4969764;28;20234;-85
2021/12/29 08:54:34;;;;;;;2.13;1.07;;;9.70;99.90;;;;;;4984881;28;20905;-87
2021/12/29 08:57:01;;;;;;;2.53;2.03;;;9.70;99.90;;;;;;4968846;28;20235;-86
2021/12/29 08:59:27;;;;;;;0.87;0.87;;;9.70;99.90;;;;;;4969231;28;20689;-85
2021/12/29 09:01:53;;;;;;;3.20;1.90;;;9.70;99.90;;;;;;4969130;28;20195;-87
2021/12/29 09:04:20;;;;;;;2.20;1.60;;;9.70;99.90;;;;;;4969209;28;20188;-87
2021/12/29 09:06:46;;;;;;;4.73;1.80;;;9.70;99.90;;;;;;4953825;28;20212;-86
2021/12/29 09:09:11;;;;;;;2.73;1.23;;;9.70;99.90;;;;;;4988531;28;20211;-85
2021/12/29 09:11:58;;;;;;;4.87;2.00;;;9.80;99.90;;;;;;4975218;28;20278;-85
2021/12/29 09:14:24;;;;;;;1.80;1.57;;;9.80;99.90;;;;;;4957099;28;20212;-87
2021/12/29 09:16:49;;;;;;;5.70;3.23;;;9.90;99.90;;;;;;4956264;28;20189;-86
2021/12/29 09:19:15;;;;;;;2.80;1.40;;;9.90;99.90;;;;;;4972916;28;20188;-86
2021/12/29 09:21:44;;;;;;;4.00;2.50;;;9.90;99.90;;;;;;4988244;28;21306;-87
2021/12/29 09:24:12;;;;;;;1.90;1.80;;;9.90;99.90;;;;;;4972165;28;20212;-87
2021/12/29 09:26:38;;;;;;;1.60;1.50;;;9.90;99.90;;;;;;4989999;28;20220;-88
2021/12/29 09:29:04;;;;;;;2.57;1.93;;;9.90;99.90;;;;;;4956554;28;20223;-85
2021/12/29 09:31:30;;;;;;;2.60;1.30;;;10.00;99.90;;;;;;4990204;28;20641;-88
2021/12/29 09:33:56;;;;;;;5.97;2.00;;;9.90;99.90;;;;;;4971778;28;20704;-86
2021/12/29 09:36:23;;;;;;;1.70;1.60;;;10.00;99.90;;;;;;4972239;28;20826;-85
2021/12/29 09:38:49;;;;;;;3.97;2.87;;;10.00;99.90;;;;;;5004950;28;20223;-86
2021/12/29 09:41:18;;;;;;;16.20;3.33;;;9.90;99.90;;;;;;4988834;28;20243;-86
2021/12/29 09:43:45;;;;;;;1.70;1.20;;;9.90;99.90;;;;;;4987892;28;20260;-87
2021/12/29 09:46:11;;;;;;;4.43;1.80;;;9.90;99.90;;;;;;4988951;28;20187;-89
2021/12/29 09:48:38;;;;;;;4.17;2.00;;;9.90;99.90;;;;;;4985828;28;20235;-87
2021/12/29 09:51:07;;;;;;;6.80;2.00;;;9.90;99.90;;;;;;4968784;28;20212;-86
2021/12/29 09:53:34;;;;;;;6.37;3.13;;;9.90;99.90;;;;;;4985550;28;20311;-85
2021/12/29 09:56:00;;;;;;;4.07;2.27;;;9.90;99.90;;;;;;4985451;28;20212;-88
2021/12/29 09:58:26;;;;;;;5.10;3.13;;;10.00;99.90;;;;;;4985805;28;20587;-85
2021/12/29 10:00:59;;;;;;;5.83;2.60;;;10.10;99.90;;;;;;4969233;28;20219;-85
2021/12/29 10:03:27;;;;;;;2.27;2.07;;;10.10;99.90;;;;;;4986203;28;20212;-89
2021/12/29 10:05:57;;;;;;;4.67;1.33;;;10.10;99.90;;;;;;4985626;28;20580;-88
2021/12/29 10:08:37;;;;;;;9.53;1.90;;;10.10;99.90;;;;;;4985446;28;20223;-87
2021/12/29 10:11:07;;;;;;;3.53;2.00;;;10.10;99.90;;;;;;5006499;28;20239;-88
2021/12/29 10:13:35;;;;;;;4.10;2.87;;;10.10;99.90;;;;;;5004599;28;20212;-88
2021/12/29 10:16:05;;;;;;;4.80;2.00;;;10.10;99.90;;;;;;4968739;28;20699;-87
2021/12/29 10:18:33;;;;;;;3.17;2.07;;;10.20;99.90;;;;;;4984770;28;20208;-88
2021/12/29 10:21:03;;;;;;;2.30;1.07;;;10.20;99.90;;;;;;4988447;28;20728;-87
2021/12/29 10:23:37;;;;;;;3.03;1.43;;;10.20;99.90;;;;;;4988702;28;20208;-87
2021/12/29 10:26:11;;;;;;;2.30;1.30;;;10.20;99.90;;;;;;4988476;28;20207;-88
2021/12/29 10:28:41;;;;;;;1.00;0.97;;;10.10;99.90;;;;;;4988016;28;20592;-87
2021/12/29 10:31:13;;;;;;;8.97;1.97;;;10.10;99.90;;;;;;4988349;28;20251;-88
2021/12/29 10:33:47;;;;;;;2.70;2.50;;;10.10;99.90;;;;;;4987919;28;20333;-88
2021/12/29 10:36:33;;;;;;;8.73;1.90;;;10.10;99.90;;;;;;4988153;28;20311;-89
2021/12/29 10:39:07;;;;;;;1.93;1.83;;;10.10;99.90;;;;;;4988079;28;20755;-89
2021/12/29 10:41:45;;;;;;;3.37;1.73;;;10.00;99.90;;;;;;4987894;28;20353;-88
2021/12/29 10:44:13;;;;;;;6.80;2.53;;;10.10;99.90;;;;;;4989223;28;20227;-89
2021/12/29 10:46:39;;;;;;;1.70;1.00;;;10.10;99.90;;;;;;4972051;28;20207;-89
2021/12/29 10:49:07;;;;;;;0.93;0.90;;;10.10;99.90;;;;;;4972436;28;20681;-88
2021/12/29 10:51:44;;;;;;;3.07;1.33;;;10.10;99.90;;;;;;4987511;28;20226;-90
2021/12/29 10:54:16;;;;;;;7.13;1.97;;;10.10;99.90;;;;;;4971886;28;20226;-87
2021/12/29 10:56:44;;;;;;;3.40;1.77;;;10.10;99.90;;;;;;4986927;28;20387;-89
2021/12/29 10:59:23;;;;;;;5.13;2.60;;;10.10;99.90;;;;;;4986560;28;20207;-87
2021/12/29 11:01:50;;;;;;;8.27;1.87;;;10.10;99.90;;;;;;4987373;28;20557;-88
2021/12/29 11:04:17;;;;;;;1.73;1.10;;;10.10;99.90;;;;;;4972094;28;20207;-88
2021/12/29 11:06:46;;;;;;;2.93;1.67;;;10.10;99.90;;;;;;4970889;28;20696;-87
2021/12/29 11:09:15;;;;;;;1.50;1.40;;;10.20;99.90;;;;;;4988346;28;20807;-88
2021/12/29 11:11:46;;;;;;;2.10;1.63;;;10.20;99.90;;;;;;4987901;28;20386;-88
2021/12/29 11:14:29;;;;;;;1.33;1.23;;;10.20;99.90;;;;;;4987423;28;20224;-88
2021/12/29 11:17:10;;;;;;;12.90;2.50;;;10.20;99.90;;;;;;5003549;28;20307;-88
2021/12/29 11:19:38;;;;;;;11.03;1.87;;;10.30;99.90;;;;;;5003539;28;20183;-88
2021/12/29 11:22:08;;;;;;;8.53;2.47;;;10.30;99.90;;;;;;4987731;28;20599;-89
2021/12/29 11:24:34;;;;;;;4.33;1.97;;;10.40;99.90;;;;;;5003997;28;20315;-90
2021/12/29 11:27:09;;;;;;;5.23;3.43;;;10.40;99.90;;;;;;4970113;28;20572;-88
2021/12/29 11:29:34;;;;;;;15.60;5.80;;;10.40;99.90;;;;;;4985702;28;20215;-86
2021/12/29 11:32:04;;;;;;;5.77;3.30;;;10.50;99.90;;;;;;4970319;28;20575;-87
2021/12/29 11:34:30;;;;;;;6.47;1.70;;;10.40;99.90;;;;;;5003216;28;20220;-86
2021/12/29 11:37:10;;;;;;;6.50;2.90;;;10.50;99.90;;;;;;4994373;28;20254;-87
2021/12/29 11:39:40;;;;;;;7.43;1.83;;;10.50;99.90;;;;;;5002927;28;20219;-86
2021/12/29 11:42:06;;;;;;;22.80;2.30;;;10.60;99.90;;;;;;4986813;28;20277;-87
2021/12/29 11:44:32;;;;;;;9.00;1.30;;;10.60;99.90;;;;;;4969716;28;20224;-90
2021/12/29 11:46:58;;;;;;;2.70;2.47;;;10.50;99.90;;;;;;4970157;28;20240;-89
2021/12/29 11:49:24;;;;;;;1.97;1.80;;;10.50;99.90;;;;;;4970698;28;20648;-86
2021/12/29 11:52:11;;;;;;;14.50;2.47;;;10.40;99.90;;;;;;4986352;28;20220;-86
2021/12/29 11:54:49;;;;;;;1.70;1.60;;;10.50;99.90;;;;;;5001556;28;20212;-87
2021/12/29 11:57:20;;;;;;;1.97;1.83;;;10.50;99.90;;;;;;4983550;28;20304;-86
2021/12/29 11:59:46;;;;;;;10.53;2.03;;;10.50;99.90;;;;;;4976373;28;20244;-88
2021/12/29 12:02:26;;;;;;;4.73;2.60;;;10.50;99.90;;;;;;4961972;28;20853;-87
2021/12/29 12:05:05;;;;;;;5.83;5.23;;;10.50;99.90;;;;;;4976883;28;20593;-85
2021/12/29 12:07:31;;;;;;;12.93;6.30;;;10.50;99.90;;;;;;4976428;28;20279;-85
2021/12/29 12:10:01;;;;;;;12.70;7.13;;;10.50;99.90;;;;;;4943219;28;20308;-87
2021/12/29 12:12:42;;;;;;;4.87;2.40;;;10.50;99.90;;;;;;4959965;28;20231;-87
2021/12/29 12:15:11;;;;;;;7.17;3.37;;;10.40;99.90;;;;;;4976743;28;20583;-86
2021/12/29 12:17:40;;;;;;;1.57;1.37;;;10.40;99.90;;;;;;4975860;28;20303;-87
2021/12/29 12:20:10;;;;;;;5.27;2.63;;;10.40;99.90;;;;;;4951723;28;20227;-85
2021/12/29 12:22:53;;;;;;;5.57;2.93;;;10.30;99.90;;;;;;4984193;28;20652;-85
2021/12/29 12:25:25;;;;;;;2.20;1.67;;;10.40;99.90;;;;;;4976998;28;20192;-86
2021/12/29 12:27:53;;;;;;;1.60;1.50;;;10.40;99.90;;;;;;4975194;28;20250;-90
2021/12/29 12:30:25;;;;;;;3.97;2.77;;;10.50;99.90;;;;;;4944852;28;20232;-85
2021/12/29 12:33:08;;;;;;;2.37;2.17;;;10.50;99.90;;;;;;4976725;28;20224;-87
2021/12/29 12:35:40;;;;;;;1.97;1.87;;;10.50;99.90;;;;;;4975652;28;20715;-86
2021/12/29 12:38:16;;;;;;;2.20;1.97;;;10.50;99.90;;;;;;4993475;28;20579;-87
2021/12/29 12:40:43;;;;;;;1.83;1.20;;;10.50;99.90;;;;;;4976310;28;20657;-87
2021/12/29 12:43:16;;;;;;;4.83;2.07;;;10.50;99.90;;;;;;4972761;28;20255;-86
2021/12/29 12:45:50;;;;;;;3.40;2.00;;;10.50;99.90;;;;;;4980832;28;20727;-86
2021/12/29 12:48:33;;;;;;;6.67;1.80;;;10.50;99.90;;;;;;4963035;28;20220;-87
2021/12/29 12:51:13;;;;;;;8.97;2.53;;;10.50;99.90;;;;;;4979596;28;20733;-86
2021/12/29 12:53:41;;;;;;;1.30;1.03;;;10.50;99.90;;;;;;4980588;28;20231;-86
2021/12/29 12:56:11;;;;;;;2.10;1.80;;;10.50;99.90;;;;;;4978221;28;20217;-85
2021/12/29 12:58:40;;;;;;;4.07;1.83;;;10.40;99.90;;;;;;4962413;28;20676;-86
2021/12/29 13:01:12;;;;;;;2.77;2.07;;;10.40;99.90;;;;;;4978617;28;20180;-89
2021/12/29 13:03:38;;;;;;;24.83;2.30;;;10.40;99.90;;;;;;4978340;28;20208;-86
2021/12/29 13:06:05;;;;;;;1.17;1.17;;;10.40;99.90;;;;;;4978176;28;20251;-88